Time;durP1;ratioP1;P1;durP2;ratioP2;P2;SDS_P1;SDS_P2;PMS_P1;PMS_P2;Temp;Humidity;BMP_temperature;BMP_pressure;BME280_temperature;BME280_humidity;BME280_pressure;Samples;Min_cycle;Max_cycle;Signal;HPM_P1;HPM_P2
2021/09/14 07:54:17;;;;;;;7.57;3.13;;;20.90;69.50;;;;;;8422390;27;1259044;-64
2021/09/14 07:58:18;;;;;;;6.32;2.55;;;21.00;70.00;;;;;;8461145;28;20030;-65
2021/09/14 08:02:18;;;;;;;6.10;4.00;;;21.00;70.00;;;;;;8461704;28;20020;-63
2021/09/14 08:06:19;;;;;;;10.40;3.10;;;21.10;69.90;;;;;;8298965;28;20044;-62
2021/09/14 08:10:19;;;;;;;25.58;8.07;;;21.20;69.60;;;;;;8394154;28;20043;-62
2021/09/14 08:14:20;;;;;;;18.83;4.75;;;21.20;69.70;;;;;;8364019;28;20025;-63
2021/09/14 08:18:20;;;;;;;23.70;5.90;;;21.20;69.60;;;;;;8359537;28;20029;-64
2021/09/14 08:22:22;;;;;;;13.38;5.82;;;21.30;69.30;;;;;;8360448;28;20033;-64
2021/09/14 08:26:23;;;;;;;20.95;6.65;;;21.30;70.10;;;;;;8360961;28;20021;-64
2021/09/14 08:30:23;;;;;;;22.17;5.28;;;21.30;69.40;;;;;;8266849;28;20076;-66
2021/09/14 08:34:24;;;;;;;18.60;5.22;;;21.30;69.30;;;;;;8300867;28;20213;-65
2021/09/14 08:38:24;;;;;;;23.80;5.78;;;21.30;69.20;;;;;;8391643;28;20056;-61
2021/09/14 08:42:25;;;;;;;26.45;6.53;;;21.30;69.20;;;;;;8391647;28;20463;-63
2021/09/14 08:46:25;;;;;;;22.48;6.50;;;21.30;69.20;;;;;;8392613;28;20037;-62
2021/09/14 08:50:27;;;;;;;25.40;7.40;;;21.30;69.70;;;;;;8391689;28;20474;-64
2021/09/14 08:54:27;;;;;;;21.23;7.07;;;21.30;69.80;;;;;;8364236;28;20582;-61
2021/09/14 08:58:28;;;;;;;25.13;7.10;;;21.30;69.80;;;;;;8358167;28;20026;-63
2021/09/14 09:02:28;;;;;;;21.23;6.60;;;21.30;69.90;;;;;;8353909;28;20044;-64
2021/09/14 09:06:29;;;;;;;16.17;5.35;;;21.30;69.60;;;;;;8335252;28;20033;-63
2021/09/14 09:10:29;;;;;;;21.35;6.28;;;21.30;69.60;;;;;;8335940;28;20514;-61
2021/09/14 09:14:29;;;;;;;26.30;6.68;;;21.30;69.70;;;;;;8335930;28;20041;-62
2021/09/14 09:18:30;;;;;;;17.15;6.85;;;21.30;69.60;;;;;;8335931;28;20037;-62
2021/09/14 09:22:30;;;;;;;26.23;6.88;;;21.30;69.80;;;;;;8335464;28;20029;-61
2021/09/14 09:26:31;;;;;;;14.45;5.35;;;21.30;69.90;;;;;;8336306;28;20056;-63
2021/09/14 09:30:34;;;;;;;20.23;6.68;;;21.30;69.70;;;;;;8334389;28;20394;-62
2021/09/14 09:34:34;;;;;;;18.70;5.95;;;21.30;69.70;;;;;;8335571;28;20391;-64
2021/09/14 09:38:34;;;;;;;12.27;5.53;;;21.30;69.60;;;;;;8344343;28;20102;-62
2021/09/14 09:42:35;;;;;;;14.60;6.75;;;21.30;69.70;;;;;;8366944;28;20029;-62
2021/09/14 09:46:35;;;;;;;15.50;5.95;;;21.30;69.90;;;;;;8368299;28;20431;-63
2021/09/14 09:50:36;;;;;;;15.45;4.32;;;21.40;69.30;;;;;;8367028;28;20017;-63
2021/09/14 09:54:36;;;;;;;17.65;6.28;;;21.30;69.30;;;;;;8366526;28;20036;-70
2021/09/14 09:58:37;;;;;;;18.45;5.72;;;21.40;69.50;;;;;;8342559;28;20029;-67
2021/09/14 10:02:37;;;;;;;16.10;6.07;;;21.40;70.00;;;;;;8334486;28;20120;-67
2021/09/14 10:06:38;;;;;;;12.65;5.07;;;21.40;69.80;;;;;;8335051;28;20427;-63
2021/09/14 10:10:38;;;;;;;12.40;5.70;;;21.40;69.80;;;;;;8334173;28;20119;-64
2021/09/14 10:14:38;;;;;;;15.88;5.80;;;21.40;70.40;;;;;;8334595;28;20026;-66
2021/09/14 10:18:40;;;;;;;14.50;5.50;;;21.40;71.00;;;;;;8333993;28;20029;-62
2021/09/14 10:22:41;;;;;;;14.55;5.68;;;21.50;70.30;;;;;;8357174;28;20052;-67
2021/09/14 10:26:41;;;;;;;17.45;4.72;;;21.50;70.40;;;;;;8367163;28;20032;-63
2021/09/14 10:30:42;;;;;;;13.98;5.55;;;21.50;70.20;;;;;;8345251;28;20112;-62
2021/09/14 10:34:42;;;;;;;14.48;5.68;;;21.50;70.20;;;;;;8360210;28;20068;-67
2021/09/14 10:38:43;;;;;;;11.48;5.63;;;21.50;70.20;;;;;;8347528;28;20096;-67
2021/09/14 10:42:43;;;;;;;11.95;5.75;;;21.50;70.30;;;;;;8366049;28;20033;-64
2021/09/14 10:46:45;;;;;;;11.30;5.57;;;21.50;70.30;;;;;;8310619;28;20052;-68
2021/09/14 10:50:45;;;;;;;12.23;4.95;;;21.60;70.30;;;;;;8366248;28;20028;-67
2021/09/14 10:54:46;;;;;;;13.65;5.97;;;21.60;70.20;;;;;;8366012;28;20025;-70
2021/09/14 10:58:46;;;;;;;16.77;6.30;;;21.60;70.30;;;;;;8367079;28;20029;-64
2021/09/14 11:02:47;;;;;;;10.68;5.38;;;21.60;70.20;;;;;;8363372;28;20033;-65
2021/09/14 11:06:47;;;;;;;12.98;5.55;;;21.60;70.30;;;;;;8310889;28;20079;-63
2021/09/14 11:10:48;;;;;;;10.15;4.65;;;21.60;70.10;;;;;;8365576;28;20048;-64
2021/09/14 11:14:49;;;;;;;8.95;4.38;;;21.60;70.00;;;;;;8357656;28;20029;-66
2021/09/14 11:18:49;;;;;;;9.07;4.30;;;21.60;69.80;;;;;;8333661;28;20109;-63
2021/09/14 11:22:49;;;;;;;12.13;5.40;;;21.60;69.60;;;;;;8331949;28;20025;-63
2021/09/14 11:26:50;;;;;;;7.60;4.68;;;21.50;69.90;;;;;;8333527;28;20029;-64
2021/09/14 11:30:50;;;;;;;15.20;5.53;;;21.50;70.20;;;;;;8332804;28;20036;-62
2021/09/14 11:34:52;;;;;;;12.07;4.90;;;21.50;70.30;;;;;;8331835;28;20022;-61
2021/09/14 11:38:53;;;;;;;9.40;5.45;;;21.50;70.20;;;;;;8332776;28;20416;-64
2021/09/14 11:42:53;;;;;;;8.38;4.50;;;21.50;70.20;;;;;;8362249;28;20063;-62
2021/09/14 11:46:54;;;;;;;9.32;5.22;;;21.50;70.00;;;;;;8365760;28;20435;-63
2021/09/14 11:50:54;;;;;;;10.75;5.80;;;21.50;70.10;;;;;;8364854;28;20065;-63
2021/09/14 11:54:54;;;;;;;9.82;5.60;;;21.50;70.00;;;;;;8363502;28;20086;-62
2021/09/14 11:58:55;;;;;;;8.45;4.72;;;21.50;70.00;;;;;;8365653;28;20028;-62
2021/09/14 12:02:56;;;;;;;7.47;4.75;;;21.50;70.00;;;;;;8364539;28;20025;-63
2021/09/14 12:06:58;;;;;;;7.78;4.97;;;21.40;69.90;;;;;;8349001;28;20091;-64
2021/09/14 12:10:59;;;;;;;11.82;6.00;;;21.50;69.90;;;;;;8331697;28;20032;-62
2021/09/14 12:14:59;;;;;;;10.10;5.03;;;21.50;69.70;;;;;;8332436;28;20017;-62
2021/09/14 12:19:00;;;;;;;8.48;4.97;;;21.50;69.80;;;;;;8358095;28;20074;-63
2021/09/14 12:23:00;;;;;;;11.27;6.00;;;21.50;70.10;;;;;;8330976;28;20030;-62
2021/09/14 12:27:00;;;;;;;10.93;5.15;;;21.50;70.00;;;;;;8345129;28;20017;-62
2021/09/14 12:31:01;;;;;;;8.32;4.95;;;21.50;70.00;;;;;;8334248;28;20037;-62
2021/09/14 12:35:01;;;;;;;7.70;4.40;;;21.50;70.00;;;;;;8378919;28;20067;-63
2021/09/14 12:39:02;;;;;;;9.68;4.82;;;21.50;69.90;;;;;;8367545;28;20028;-61
2021/09/14 12:46:16;;;;;;;26.85;4.90;;;21.50;69.30;;;;;;8437191;27;20214;-65
2021/09/14 12:50:17;;;;;;;8.25;4.57;;;21.60;69.50;;;;;;8325834;28;20044;-62
2021/09/14 12:54:17;;;;;;;7.00;4.32;;;21.60;69.70;;;;;;8426301;28;20081;-64
2021/09/14 12:58:17;;;;;;;5.32;3.85;;;21.50;69.60;;;;;;8425894;28;20032;-64
2021/09/14 13:02:18;;;;;;;7.53;4.50;;;21.50;69.80;;;;;;8425833;28;20024;-62
2021/09/14 13:06:18;;;;;;;16.85;5.30;;;21.50;69.90;;;;;;8426493;28;20040;-64
2021/09/14 13:10:19;;;;;;;11.18;5.03;;;21.50;69.90;;;;;;8424884;28;20016;-62
2021/09/14 13:18:39;;;;;;;10.77;5.22;;;21.60;70.10;;;;;;8422118;28;20027;-62
2021/09/14 13:22:39;;;;;;;6.93;4.65;;;21.60;70.10;;;;;;8422807;28;20024;-61
2021/09/14 13:26:40;;;;;;;13.27;5.15;;;21.60;70.10;;;;;;8314392;28;20036;-56
2021/09/14 13:30:41;;;;;;;44.03;32.42;;;22.20;71.70;;;;;;8371944;28;20052;-64
2021/09/14 13:34:42;;;;;;;47.30;34.35;;;21.70;76.10;;;;;;8374826;28;20052;-67
2021/09/14 15:07:32;;;;;;;59.33;39.90;;;18.30;94.30;;;;;;8481997;27;20219;-90
2021/09/14 15:15:59;;;;;;;44.67;34.65;;;18.30;94.50;;;;;;8445784;28;20038;-89
2021/09/14 15:20:00;;;;;;;52.58;37.63;;;18.40;94.80;;;;;;8429238;28;20052;-88
2021/09/14 15:24:00;;;;;;;45.97;36.45;;;18.40;94.60;;;;;;8432914;28;20024;-89
2021/09/14 15:28:06;;;;;;;57.35;35.40;;;18.50;94.80;;;;;;8432033;28;20052;-90
2021/09/14 15:32:08;;;;;;;51.22;35.92;;;18.50;94.50;;;;;;8434749;28;20024;-90
2021/09/14 15:36:08;;;;;;;68.05;36.22;;;18.50;94.40;;;;;;8426634;28;20051;-90
2021/09/14 15:40:19;;;;;;;51.28;35.72;;;18.50;94.70;;;;;;8430011;28;20020;-89
2021/09/14 15:44:22;;;;;;;47.25;35.13;;;18.40;94.50;;;;;;8433647;28;20032;-89
2021/09/14 15:48:44;;;;;;;49.97;35.50;;;18.50;94.30;;;;;;8429355;28;20024;-89
2021/09/14 15:52:49;;;;;;;49.38;34.80;;;18.50;94.70;;;;;;8443553;28;20025;-89
2021/09/14 15:56:52;;;;;;;55.17;38.08;;;18.50;94.40;;;;;;8430670;28;20032;-89
2021/09/14 16:05:14;;;;;;;48.50;35.10;;;18.60;94.40;;;;;;8443275;28;20398;-90
2021/09/14 16:09:17;;;;;;;47.72;36.50;;;18.70;94.60;;;;;;8435400;28;20043;-89
2021/09/14 16:13:17;;;;;;;42.35;32.28;;;18.90;94.50;;;;;;8441445;28;20232;-89
2021/09/14 16:17:26;;;;;;;41.65;32.10;;;19.10;94.40;;;;;;8434283;28;20086;-90
2021/09/14 16:21:28;;;;;;;44.10;34.80;;;19.10;94.00;;;;;;8413103;28;20021;-89
2021/09/14 16:25:28;;;;;;;38.78;31.15;;;19.10;93.90;;;;;;8411232;28;20022;-89
2021/09/14 16:55:11;;;;;;;34.72;28.73;;;18.80;93.70;;;;;;8278332;28;20040;-91
2021/09/14 17:08:48;;;;;;;10.00;6.70;;;19.20;90.40;;;;;;8490249;27;20142;-70
2021/09/14 17:12:49;;;;;;;12.95;7.03;;;20.20;94.40;;;;;;8491075;28;20027;-65
2021/09/14 17:16:50;;;;;;;8.60;6.35;;;20.70;94.10;;;;;;8489758;28;20459;-68
2021/09/14 17:20:50;;;;;;;8.85;5.82;;;21.10;93.80;;;;;;8491636;28;20012;-68
2021/09/14 17:24:50;;;;;;;8.50;6.40;;;21.30;93.50;;;;;;8490000;28;20794;-66
2021/09/14 17:28:51;;;;;;;7.78;6.68;;;21.50;93.40;;;;;;8489286;28;20015;-68
2021/09/14 17:32:51;;;;;;;6.38;5.65;;;21.60;93.20;;;;;;8490119;28;20023;-67
2021/09/14 17:36:52;;;;;;;11.93;6.20;;;21.70;93.00;;;;;;8489657;28;20027;-66
2021/09/14 17:40:52;;;;;;;7.53;6.18;;;21.80;92.90;;;;;;8490351;28;20019;-68
2021/09/14 17:44:52;;;;;;;7.32;5.78;;;21.90;92.90;;;;;;8471384;28;20034;-69
2021/09/14 17:48:53;;;;;;;6.95;5.32;;;21.90;92.60;;;;;;8489229;28;20347;-69
2021/09/14 17:52:54;;;;;;;7.55;5.63;;;22.00;92.00;;;;;;8489852;28;20080;-71
2021/09/14 17:56:54;;;;;;;6.70;5.65;;;22.00;91.50;;;;;;8488883;28;20020;-70
2021/09/14 18:00:54;;;;;;;12.15;6.05;;;22.00;91.00;;;;;;8489977;28;20087;-68
2021/09/14 18:04:57;;;;;;;7.43;5.05;;;22.00;90.80;;;;;;8468970;28;20045;-70
2021/09/14 18:08:57;;;;;;;6.95;5.63;;;22.00;90.60;;;;;;8490166;28;20109;-69
2021/09/14 18:12:57;;;;;;;7.88;5.50;;;22.00;90.40;;;;;;8310824;28;20475;-71
2021/09/14 18:16:58;;;;;;;5.53;4.90;;;22.00;90.30;;;;;;8372987;28;20384;-66
2021/09/14 18:20:58;;;;;;;7.10;5.35;;;22.00;90.10;;;;;;8379184;28;20043;-67
2021/09/14 18:24:59;;;;;;;7.10;6.05;;;22.00;90.00;;;;;;8391500;28;20094;-66
2021/09/14 18:28:59;;;;;;;5.97;5.25;;;22.00;89.40;;;;;;8366190;28;20033;-66
2021/09/14 18:33:00;;;;;;;7.40;5.32;;;22.00;88.90;;;;;;8367544;28;20063;-64
2021/09/14 18:37:00;;;;;;;14.35;5.82;;;21.90;88.40;;;;;;8366248;28;20029;-65
2021/09/14 18:41:00;;;;;;;11.40;5.78;;;21.90;87.80;;;;;;8366935;28;20029;-66
2021/09/14 18:45:01;;;;;;;7.18;5.55;;;21.90;86.80;;;;;;8365803;28;20040;-65
2021/09/14 18:49:02;;;;;;;9.43;4.82;;;21.90;85.90;;;;;;8397093;28;20029;-64
2021/09/14 18:53:02;;;;;;;6.43;5.45;;;22.00;84.90;;;;;;8398491;28;20025;-64
2021/09/14 18:57:02;;;;;;;5.32;4.75;;;22.00;84.30;;;;;;8398699;28;20031;-66
2021/09/14 19:01:03;;;;;;;7.85;5.95;;;22.10;84.00;;;;;;8399686;28;20062;-65
2021/09/14 19:05:03;;;;;;;7.25;4.97;;;22.10;83.60;;;;;;8396569;28;20175;-66
2021/09/14 19:09:08;;;;;;;6.45;5.00;;;22.10;83.40;;;;;;8398734;28;20025;-63
2021/09/14 19:13:10;;;;;;;6.60;5.65;;;22.10;83.30;;;;;;8399207;28;20016;-65
2021/09/14 19:17:10;;;;;;;5.68;4.57;;;22.00;83.10;;;;;;8398086;28;20039;-65
2021/09/14 19:21:11;;;;;;;7.13;5.22;;;22.10;83.10;;;;;;8399021;28;20044;-66
2021/09/14 19:25:11;;;;;;;5.82;4.85;;;22.00;82.80;;;;;;8397505;28;20039;-65
2021/09/14 19:29:12;;;;;;;6.70;5.05;;;22.00;82.80;;;;;;8397253;28;20094;-65
2021/09/14 19:33:12;;;;;;;6.43;4.90;;;22.00;82.60;;;;;;8398166;28;20466;-73
2021/09/14 19:37:12;;;;;;;7.97;4.53;;;22.00;82.60;;;;;;8397471;28;20028;-67
2021/09/14 19:41:13;;;;;;;11.20;4.93;;;22.00;82.70;;;;;;8398745;28;20032;-68
2021/09/14 19:45:13;;;;;;;4.97;4.18;;;22.00;82.70;;;;;;8395525;28;20029;-71
2021/09/14 19:49:14;;;;;;;5.70;4.57;;;22.00;82.60;;;;;;8396549;28;20039;-71
2021/09/14 19:53:14;;;;;;;5.28;4.78;;;22.00;82.60;;;;;;8398205;28;20028;-66
2021/09/14 19:57:14;;;;;;;7.88;4.85;;;22.00;82.60;;;;;;8393316;28;20067;-68
2021/09/14 20:01:15;;;;;;;5.55;4.75;;;22.00;82.70;;;;;;8396483;28;20062;-69
2021/09/14 20:05:15;;;;;;;5.90;4.45;;;22.00;82.70;;;;;;8394854;28;20585;-68
2021/09/14 20:09:20;;;;;;;5.38;4.85;;;22.00;82.50;;;;;;8396745;28;20024;-66
2021/09/14 20:13:20;;;;;;;5.65;4.38;;;22.00;82.50;;;;;;8397518;28;20031;-67
2021/09/14 20:17:21;;;;;;;9.00;4.82;;;22.00;82.40;;;;;;8396321;28;20115;-66
2021/09/14 20:21:21;;;;;;;6.63;4.82;;;22.00;82.30;;;;;;8397497;28;20024;-67
2021/09/14 20:25:22;;;;;;;5.32;4.57;;;22.00;82.20;;;;;;8395772;28;20047;-66
2021/09/14 20:29:22;;;;;;;7.88;4.32;;;22.00;82.10;;;;;;8395195;28;20079;-67
2021/09/14 20:33:23;;;;;;;7.03;4.55;;;22.00;81.70;;;;;;8397057;28;20086;-67
2021/09/14 20:37:23;;;;;;;4.93;4.13;;;22.00;81.40;;;;;;8395713;28;20039;-68
2021/09/14 20:41:24;;;;;;;4.68;4.20;;;22.00;81.30;;;;;;8395695;28;20044;-67
2021/09/14 20:45:25;;;;;;;6.85;3.90;;;22.00;81.80;;;;;;8395438;28;20115;-66
2021/09/14 20:49:25;;;;;;;4.32;3.83;;;22.00;81.00;;;;;;8395051;28;20103;-65
2021/09/14 20:53:26;;;;;;;7.53;4.20;;;22.00;80.90;;;;;;8395727;28;20054;-65
2021/09/14 20:57:27;;;;;;;7.45;3.70;;;22.00;80.90;;;;;;8394505;28;20097;-64
2021/09/14 21:01:27;;;;;;;6.72;4.00;;;22.00;80.70;;;;;;8391771;28;20088;-69
2021/09/14 21:05:27;;;;;;;5.65;3.75;;;22.00;80.70;;;;;;8392585;28;20079;-66
2021/09/14 21:09:28;;;;;;;5.25;3.83;;;22.00;80.50;;;;;;8393593;28;20032;-67
2021/09/14 21:13:28;;;;;;;6.40;4.05;;;22.00;80.40;;;;;;8394661;28;20024;-66
2021/09/14 21:17:29;;;;;;;5.30;4.53;;;22.00;80.30;;;;;;8393269;28;20119;-66
2021/09/14 21:21:29;;;;;;;9.32;4.45;;;22.10;80.20;;;;;;8393281;28;20017;-66
2021/09/14 21:25:30;;;;;;;3.70;3.30;;;22.10;80.00;;;;;;8390797;28;20086;-66
2021/09/14 21:29:30;;;;;;;5.00;3.95;;;22.10;79.80;;;;;;8394114;28;20400;-67
2021/09/14 21:33:31;;;;;;;6.95;3.95;;;22.10;79.60;;;;;;8394764;28;20035;-67
2021/09/14 21:37:31;;;;;;;6.13;4.32;;;22.10;79.50;;;;;;8393657;28;20039;-68
2021/09/14 21:41:32;;;;;;;6.70;3.67;;;22.10;79.40;;;;;;8395108;28;20116;-66
2021/09/14 21:45:32;;;;;;;4.43;4.03;;;22.10;79.30;;;;;;8395412;28;20479;-67
2021/09/14 21:49:32;;;;;;;7.20;4.00;;;22.10;79.20;;;;;;8394567;28;20040;-67
2021/09/14 21:53:37;;;;;;;4.68;3.95;;;22.10;79.10;;;;;;8398693;28;20470;-67
2021/09/14 21:57:38;;;;;;;4.27;3.60;;;22.10;78.90;;;;;;8400987;28;20497;-67
2021/09/14 22:01:38;;;;;;;3.42;3.10;;;22.10;78.90;;;;;;8400775;28;20025;-69
2021/09/14 22:05:39;;;;;;;4.45;3.60;;;22.10;78.80;;;;;;8406815;28;20048;-68
2021/09/14 22:09:39;;;;;;;6.20;3.22;;;22.10;78.60;;;;;;8434315;28;20161;-67
2021/09/14 22:13:39;;;;;;;4.07;3.22;;;22.10;78.60;;;;;;8434781;28;20039;-68
2021/09/14 22:17:40;;;;;;;4.25;3.85;;;22.10;78.40;;;;;;8433862;28;20036;-67
2021/09/14 22:21:40;;;;;;;3.42;3.13;;;22.10;78.40;;;;;;8434005;28;20024;-67
2021/09/14 22:25:41;;;;;;;6.32;3.08;;;22.10;78.30;;;;;;8406800;28;20064;-65
2021/09/14 22:29:41;;;;;;;3.35;3.05;;;22.10;78.30;;;;;;8367143;28;20029;-66
2021/09/14 22:33:42;;;;;;;5.43;3.13;;;22.10;78.20;;;;;;8367652;28;20108;-66
2021/09/14 22:37:42;;;;;;;3.70;2.90;;;22.10;78.10;;;;;;8365828;28;20025;-67
2021/09/14 22:41:43;;;;;;;4.03;3.10;;;22.10;78.00;;;;;;8403242;28;20036;-66
2021/09/14 22:45:43;;;;;;;3.50;3.00;;;22.10;78.00;;;;;;8403816;28;20035;-66
2021/09/14 22:49:43;;;;;;;4.00;2.85;;;22.10;77.90;;;;;;8403212;28;20044;-66
2021/09/14 22:53:44;;;;;;;3.88;2.97;;;22.10;77.70;;;;;;8403935;28;20032;-66
2021/09/14 22:57:44;;;;;;;4.30;3.38;;;22.00;77.50;;;;;;8402438;28;20028;-67
2021/09/14 23:01:45;;;;;;;4.47;3.00;;;22.00;77.40;;;;;;8402957;28;20028;-66
2021/09/14 23:05:45;;;;;;;4.93;3.10;;;22.00;77.40;;;;;;8402983;28;20535;-66
2021/09/14 23:09:46;;;;;;;3.35;2.65;;;21.90;77.20;;;;;;8402654;28;20047;-66
2021/09/14 23:13:46;;;;;;;5.18;3.58;;;21.90;77.10;;;;;;8403147;28;20060;-67
2021/09/14 23:17:47;;;;;;;7.60;3.30;;;21.90;77.10;;;;;;8401726;28;20035;-67
2021/09/14 23:21:47;;;;;;;5.30;3.13;;;21.90;77.10;;;;;;8402258;28;20043;-66
2021/09/14 23:25:48;;;;;;;5.13;2.90;;;21.80;76.90;;;;;;8402751;28;20486;-67
2021/09/14 23:29:48;;;;;;;3.72;3.33;;;21.80;76.80;;;;;;8379239;28;20024;-66
2021/09/14 23:33:49;;;;;;;4.70;2.88;;;21.80;76.80;;;;;;8369364;28;20111;-66
2021/09/14 23:37:49;;;;;;;3.55;3.22;;;21.80;76.80;;;;;;8367813;28;20024;-66
2021/09/14 23:41:50;;;;;;;6.05;3.10;;;21.80;76.80;;;;;;8368793;28;20036;-67
2021/09/14 23:45:50;;;;;;;3.33;3.03;;;21.80;76.70;;;;;;8368647;28;20039;-67
2021/09/14 23:49:51;;;;;;;6.20;3.08;;;21.70;76.60;;;;;;8368275;28;20474;-66
2021/09/14 23:53:51;;;;;;;3.83;2.90;;;21.70;76.70;;;;;;8368928;28;20057;-67
2021/09/14 23:57:51;;;;;;;3.78;3.28;;;21.70;76.50;;;;;;8367788;28;20037;-67
